sensor_id;sensor_type;location;lat;lon;timestamp;pressure;altitude;pressure_sealevel;temperature;humidity
31088;BME280;17745;55.914;37.554;2023-02-05T00:25:45;99775.78;;;1.07;57.62
31088;BME280;17745;55.914;37.554;2023-02-05T00:28:23;99791.09;;;0.64;58.80
31088;BME280;17745;55.914;37.554;2023-02-05T00:31:56;99784.91;;;0.88;58.00
31088;BME280;17745;55.914;37.554;2023-02-05T00:34:58;99789.75;;;1.14;57.54
31088;BME280;17745;55.914;37.554;2023-02-05T00:38:06;99795.00;;;1.30;57.39
31088;BME280;17745;55.914;37.554;2023-02-05T01:15:27;99801.75;;;-0.43;60.84
31088;BME280;17745;55.914;37.554;2023-02-05T01:18:23;99812.44;;;-0.21;60.42
31088;BME280;17745;55.914;37.554;2023-02-05T01:20:56;99816.25;;;0.48;58.82
31088;BME280;17745;55.914;37.554;2023-02-05T01:23:38;99819.38;;;0.75;58.08
31088;BME280;17745;55.914;37.554;2023-02-05T01:26:34;99803.78;;;0.90;57.92
31088;BME280;17745;55.914;37.554;2023-02-05T01:29:19;99819.19;;;0.77;58.06
31088;BME280;17745;55.914;37.554;2023-02-05T01:32:07;99821.66;;;0.70;58.15
31088;BME280;17745;55.914;37.554;2023-02-05T01:34:37;99816.81;;;0.67;58.22
31088;BME280;17745;55.914;37.554;2023-02-05T01:37:11;99817.91;;;0.73;58.02
31088;BME280;17745;55.914;37.554;2023-02-05T01:39:48;99819.03;;;0.07;59.63
31088;BME280;17745;55.914;37.554;2023-02-05T01:42:31;99821.56;;;0.32;58.95
31088;BME280;17745;55.914;37.554;2023-02-05T01:45:37;99826.66;;;0.56;58.27
31088;BME280;17745;55.914;37.554;2023-02-05T01:48:18;99822.78;;;0.44;58.50
31088;BME280;17745;55.914;37.554;2023-02-05T01:50:57;99821.34;;;0.41;58.60
31088;BME280;17745;55.914;37.554;2023-02-05T01:53:41;99822.97;;;0.42;58.55
31088;BME280;17745;55.914;37.554;2023-02-05T01:56:33;99830.81;;;0.66;57.93
31088;BME280;17745;55.914;37.554;2023-02-05T01:59:12;99822.06;;;0.59;58.07
31088;BME280;17745;55.914;37.554;2023-02-05T02:01:55;99831.56;;;0.83;57.67
31088;BME280;17745;55.914;37.554;2023-02-05T02:04:55;99833.94;;;0.93;57.62
31088;BME280;17745;55.914;37.554;2023-02-05T02:07:25;99832.41;;;0.98;57.54
31088;BME280;17745;55.914;37.554;2023-02-05T02:09:57;99838.81;;;0.64;57.99
31088;BME280;17745;55.914;37.554;2023-02-05T02:12:32;99831.88;;;0.48;58.28
31088;BME280;17745;55.914;37.554;2023-02-05T02:15:21;99837.38;;;0.22;58.87
31088;BME280;17745;55.914;37.554;2023-02-05T02:18:09;99828.41;;;0.64;57.90
31088;BME280;17745;55.914;37.554;2023-02-05T02:24:33;99833.94;;;0.61;57.93
31088;BME280;17745;55.914;37.554;2023-02-05T02:30:24;99845.09;;;0.78;57.72
31088;BME280;17745;55.914;37.554;2023-02-05T02:33:11;99837.50;;;0.68;57.72
31088;BME280;17745;55.914;37.554;2023-02-05T02:35:44;99838.06;;;0.55;57.95
31088;BME280;17745;55.914;37.554;2023-02-05T02:38:20;99839.63;;;0.65;57.76
31088;BME280;17745;55.914;37.554;2023-02-05T02:40:53;99838.00;;;0.32;58.34
31088;BME280;17745;55.914;37.554;2023-02-05T02:43:24;99832.16;;;0.62;57.49
31088;BME280;17745;55.914;37.554;2023-02-05T02:45:58;99836.28;;;0.79;57.43
31088;BME280;17745;55.914;37.554;2023-02-05T02:48:29;99836.56;;;0.84;57.29
31088;BME280;17745;55.914;37.554;2023-02-05T02:50:58;99841.91;;;0.91;57.46
31088;BME280;17745;55.914;37.554;2023-02-05T02:53:33;99845.84;;;0.87;57.10
31088;BME280;17745;55.914;37.554;2023-02-05T02:56:03;99845.22;;;0.85;56.96
31088;BME280;17745;55.914;37.554;2023-02-05T02:58:36;99843.19;;;0.72;57.00
31088;BME280;17745;55.914;37.554;2023-02-05T03:01:10;99848.47;;;0.55;57.29
31088;BME280;17745;55.914;37.554;2023-02-05T03:03:42;99851.03;;;0.64;57.04
31088;BME280;17745;55.914;37.554;2023-02-05T03:06:13;99852.78;;;0.71;56.95
31088;BME280;17745;55.914;37.554;2023-02-05T03:08:49;99858.16;;;0.70;56.89
31088;BME280;17745;55.914;37.554;2023-02-05T03:11:21;99851.97;;;0.71;56.87
31088;BME280;17745;55.914;37.554;2023-02-05T03:13:49;99860.34;;;0.58;56.88
31088;BME280;17745;55.914;37.554;2023-02-05T03:16:19;99860.62;;;0.32;57.31
31088;BME280;17745;55.914;37.554;2023-02-05T03:18:48;99854.34;;;0.49;56.92
31088;BME280;17745;55.914;37.554;2023-02-05T03:21:19;99859.09;;;-0.11;58.15
31088;BME280;17745;55.914;37.554;2023-02-05T03:23:49;99858.75;;;0.01;57.58
31088;BME280;17745;55.914;37.554;2023-02-05T03:26:23;99856.47;;;0.14;57.20
31088;BME280;17745;55.914;37.554;2023-02-05T03:28:53;99861.94;;;0.27;57.13
31088;BME280;17745;55.914;37.554;2023-02-05T03:31:32;99865.84;;;0.32;57.10
31088;BME280;17745;55.914;37.554;2023-02-05T03:34:11;99862.94;;;0.18;57.17
31088;BME280;17745;55.914;37.554;2023-02-05T03:36:54;99861.81;;;0.21;56.95
31088;BME280;17745;55.914;37.554;2023-02-05T03:39:35;99853.47;;;0.25;56.96
31088;BME280;17745;55.914;37.554;2023-02-05T03:42:28;99863.63;;;0.12;57.08
31088;BME280;17745;55.914;37.554;2023-02-05T03:45:09;99865.56;;;0.10;57.02
31088;BME280;17745;55.914;37.554;2023-02-05T03:47:54;99861.69;;;-0.11;57.35
31088;BME280;17745;55.914;37.554;2023-02-05T03:50:30;99866.91;;;-0.11;57.20
31088;BME280;17745;55.914;37.554;2023-02-05T03:53:03;99862.53;;;-0.10;57.09
31088;BME280;17745;55.914;37.554;2023-02-05T03:55:40;99861.41;;;-0.08;56.95
31088;BME280;17745;55.914;37.554;2023-02-05T03:58:15;99862.69;;;-0.12;57.09
31088;BME280;17745;55.914;37.554;2023-02-05T04:00:47;99855.06;;;-0.22;57.21
31088;BME280;17745;55.914;37.554;2023-02-05T04:03:18;99866.78;;;-0.26;57.25
31088;BME280;17745;55.914;37.554;2023-02-05T04:05:49;99867.28;;;-0.31;57.32
31088;BME280;17745;55.914;37.554;2023-02-05T04:08:18;99873.44;;;-0.32;57.29
31088;BME280;17745;55.914;37.554;2023-02-05T04:10:46;99878.66;;;-0.32;57.28
31088;BME280;17745;55.914;37.554;2023-02-05T04:13:18;99875.25;;;-0.32;57.34
31088;BME280;17745;55.914;37.554;2023-02-05T04:16:01;99874.78;;;-0.61;58.05
31088;BME280;17745;55.914;37.554;2023-02-05T04:18:43;99879.31;;;-0.54;57.82
31088;BME280;17745;55.914;37.554;2023-02-05T04:21:28;99878.66;;;-0.90;58.72
31088;BME280;17745;55.914;37.554;2023-02-05T04:24:11;99883.53;;;-0.62;58.05
31088;BME280;17745;55.914;37.554;2023-02-05T04:26:46;99879.97;;;-0.61;58.08
31088;BME280;17745;55.914;37.554;2023-02-05T04:29:16;99884.50;;;-0.79;58.77
31088;BME280;17745;55.914;37.554;2023-02-05T04:32:15;99885.03;;;-0.59;58.16
31088;BME280;17745;55.914;37.554;2023-02-05T04:35:01;99892.00;;;-0.60;58.11
31088;BME280;17745;55.914;37.554;2023-02-05T04:37:46;99898.66;;;-0.65;58.64
31088;BME280;17745;55.914;37.554;2023-02-05T04:40:18;99908.91;;;-0.47;58.33
31088;BME280;17745;55.914;37.554;2023-02-05T04:43:14;99912.31;;;-0.80;59.42
31088;BME280;17745;55.914;37.554;2023-02-05T04:46:06;99915.41;;;-0.68;59.01
31088;BME280;17745;55.914;37.554;2023-02-05T04:48:47;99918.19;;;-0.36;58.35
31088;BME280;17745;55.914;37.554;2023-02-05T04:54:51;99922.09;;;-0.40;58.58
31088;BME280;17745;55.914;37.554;2023-02-05T04:57:20;99919.00;;;-0.36;58.39
31088;BME280;17745;55.914;37.554;2023-02-05T04:59:52;99917.69;;;-0.40;58.42
31088;BME280;17745;55.914;37.554;2023-02-05T05:02:35;99927.28;;;-0.49;58.62
31088;BME280;17745;55.914;37.554;2023-02-05T05:05:33;99934.41;;;-0.76;59.37
31088;BME280;17745;55.914;37.554;2023-02-05T05:08:17;99932.63;;;-0.67;59.04
31088;BME280;17745;55.914;37.554;2023-02-05T05:11:22;99936.50;;;-0.79;59.37
31088;BME280;17745;55.914;37.554;2023-02-05T05:14:06;99940.09;;;-0.80;59.56
31088;BME280;17745;55.914;37.554;2023-02-05T05:16:49;99946.19;;;-1.06;60.32
31088;BME280;17745;55.914;37.554;2023-02-05T05:19:51;99942.16;;;-0.92;59.62
31088;BME280;17745;55.914;37.554;2023-02-05T05:22:47;99948.91;;;-0.65;59.05
31088;BME280;17745;55.914;37.554;2023-02-05T05:25:45;99952.16;;;-0.63;58.99
31088;BME280;17745;55.914;37.554;2023-02-05T06:04:31;99961.28;;;-0.17;58.38
31088;BME280;17745;55.914;37.554;2023-02-05T06:07:30;99964.53;;;-0.23;58.33
31088;BME280;17745;55.914;37.554;2023-02-05T06:10:29;99959.97;;;-0.05;57.94
31088;BME280;17745;55.914;37.554;2023-02-05T06:13:54;99964.03;;;0.06;57.83
31088;BME280;17745;55.914;37.554;2023-02-05T06:16:54;99972.34;;;0.02;57.88
31088;BME280;17745;55.914;37.554;2023-02-05T06:19:24;99976.22;;;0.06;57.62
31088;BME280;17745;55.914;37.554;2023-02-05T06:50:15;100003.63;;;0.75;56.07
31088;BME280;17745;55.914;37.554;2023-02-05T06:52:51;100009.22;;;1.03;56.00
31088;BME280;17745;55.914;37.554;2023-02-05T06:55:24;100005.25;;;1.16;55.84
31088;BME280;17745;55.914;37.554;2023-02-05T06:58:15;100004.22;;;1.25;55.77
31088;BME280;17745;55.914;37.554;2023-02-05T07:00:58;100009.66;;;1.15;55.27
31088;BME280;17745;55.914;37.554;2023-02-05T07:03:44;100013.69;;;1.26;55.02
31088;BME280;17745;55.914;37.554;2023-02-05T07:13:43;100009.25;;;1.58;55.34
31088;BME280;17745;55.914;37.554;2023-02-05T07:16:45;100022.72;;;1.70;54.89
31088;BME280;17745;55.914;37.554;2023-02-05T07:19:43;100014.03;;;1.78;55.25
31088;BME280;17745;55.914;37.554;2023-02-05T07:22:23;100024.78;;;1.98;55.67
31088;BME280;17745;55.914;37.554;2023-02-05T07:25:03;100024.75;;;2.06;55.14
31088;BME280;17745;55.914;37.554;2023-02-05T07:28:27;100026.72;;;2.04;54.66
31088;BME280;17745;55.914;37.554;2023-02-05T07:45:37;100035.00;;;0.98;54.06
31088;BME280;17745;55.914;37.554;2023-02-05T07:48:06;100026.53;;;0.88;54.01
31088;BME280;17745;55.914;37.554;2023-02-05T07:50:42;100036.00;;;0.89;53.91
31088;BME280;17745;55.914;37.554;2023-02-05T07:53:14;100032.75;;;0.87;53.91
31088;BME280;17745;55.914;37.554;2023-02-05T07:55:44;100037.16;;;0.86;53.74
31088;BME280;17745;55.914;37.554;2023-02-05T07:58:12;100042.03;;;0.89;53.70
31088;BME280;17745;55.914;37.554;2023-02-05T08:00:51;100036.97;;;0.88;53.60
31088;BME280;17745;55.914;37.554;2023-02-05T08:04:24;100050.69;;;0.81;53.74
31088;BME280;17745;55.914;37.554;2023-02-05T08:06:58;100045.66;;;0.71;53.75
31088;BME280;17745;55.914;37.554;2023-02-05T08:09:43;100048.03;;;0.90;53.42
31088;BME280;17745;55.914;37.554;2023-02-05T08:12:17;100051.44;;;0.98;53.30
31088;BME280;17745;55.914;37.554;2023-02-05T08:14:45;100048.00;;;1.06;53.33
31088;BME280;17745;55.914;37.554;2023-02-05T08:17:31;100043.94;;;1.04;53.21
31088;BME280;17745;55.914;37.554;2023-02-05T08:20:03;100040.75;;;0.85;53.27
31088;BME280;17745;55.914;37.554;2023-02-05T08:22:33;100045.31;;;0.83;53.33
31088;BME280;17745;55.914;37.554;2023-02-05T08:25:28;100045.13;;;0.84;53.38
31088;BME280;17745;55.914;37.554;2023-02-05T08:27:57;100052.66;;;0.79;53.40
31088;BME280;17745;55.914;37.554;2023-02-05T08:30:25;100056.72;;;0.82;53.33
31088;BME280;17745;55.914;37.554;2023-02-05T08:33:12;100058.19;;;0.68;53.59
31088;BME280;17745;55.914;37.554;2023-02-05T08:36:04;100068.63;;;0.68;53.71
31088;BME280;17745;55.914;37.554;2023-02-05T08:38:39;100062.75;;;0.66;54.17
31088;BME280;17745;55.914;37.554;2023-02-05T08:41:09;100056.50;;;0.92;53.74
31088;BME280;17745;55.914;37.554;2023-02-05T08:43:46;100052.22;;;1.16;53.59
31088;BME280;17745;55.914;37.554;2023-02-05T08:46:20;100055.34;;;1.42;53.34
31088;BME280;17745;55.914;37.554;2023-02-05T08:48:57;100058.00;;;1.66;53.23
31088;BME280;17745;55.914;37.554;2023-02-05T08:51:26;100068.44;;;1.89;52.86
31088;BME280;17745;55.914;37.554;2023-02-05T08:54:04;100067.53;;;1.82;52.78
31088;BME280;17745;55.914;37.554;2023-02-05T08:57:39;100071.44;;;2.01;52.39
31088;BME280;17745;55.914;37.554;2023-02-05T09:00:31;100071.66;;;1.99;51.78
31088;BME280;17745;55.914;37.554;2023-02-05T09:03:03;100077.94;;;2.28;52.04
31088;BME280;17745;55.914;37.554;2023-02-05T09:05:50;100071.56;;;2.31;51.82
31088;BME280;17745;55.914;37.554;2023-02-05T09:08:20;100069.44;;;1.88;51.48
31088;BME280;17745;55.914;37.554;2023-02-05T09:10:55;100066.41;;;1.76;51.39
31088;BME280;17745;55.914;37.554;2023-02-05T09:13:26;100074.72;;;1.80;51.41
31088;BME280;17745;55.914;37.554;2023-02-05T09:16:03;100079.09;;;1.79;51.34
31088;BME280;17745;55.914;37.554;2023-02-05T09:18:49;100087.97;;;2.02;51.16
31088;BME280;17745;55.914;37.554;2023-02-05T09:21:38;100072.81;;;2.20;51.34
31088;BME280;17745;55.914;37.554;2023-02-05T09:24:08;100076.78;;;1.61;51.49
31088;BME280;17745;55.914;37.554;2023-02-05T09:26:36;100082.13;;;1.68;51.09
31088;BME280;17745;55.914;37.554;2023-02-05T09:29:06;100075.88;;;2.00;50.75
31088;BME280;17745;55.914;37.554;2023-02-05T09:31:36;100074.91;;;2.25;50.74
31088;BME280;17745;55.914;37.554;2023-02-05T09:34:05;100075.28;;;2.37;50.96
31088;BME280;17745;55.914;37.554;2023-02-05T09:36:34;100068.84;;;2.24;51.14
31088;BME280;17745;55.914;37.554;2023-02-05T09:39:23;100079.38;;;2.16;50.74
31088;BME280;17745;55.914;37.554;2023-02-05T09:42:01;100072.31;;;1.93;50.73
31088;BME280;17745;55.914;37.554;2023-02-05T09:44:55;100076.16;;;2.29;50.34
31088;BME280;17745;55.914;37.554;2023-02-05T09:47:33;100074.69;;;2.26;50.25
31088;BME280;17745;55.914;37.554;2023-02-05T09:50:17;100077.75;;;2.15;50.11
31088;BME280;17745;55.914;37.554;2023-02-05T09:53:00;100081.63;;;1.96;50.30
31088;BME280;17745;55.914;37.554;2023-02-05T09:56:04;100070.53;;;2.17;49.83
31088;BME280;17745;55.914;37.554;2023-02-05T09:58:40;100086.84;;;2.19;49.97
31088;BME280;17745;55.914;37.554;2023-02-05T10:01:16;100087.34;;;2.38;49.78
31088;BME280;17745;55.914;37.554;2023-02-05T10:03:50;100082.50;;;2.35;49.79
31088;BME280;17745;55.914;37.554;2023-02-05T10:06:40;100081.28;;;2.22;49.65
31088;BME280;17745;55.914;37.554;2023-02-05T10:09:29;100083.53;;;2.25;49.68
31088;BME280;17745;55.914;37.554;2023-02-05T10:12:15;100086.66;;;2.21;49.65
31088;BME280;17745;55.914;37.554;2023-02-05T10:14:57;100084.25;;;2.19;49.66
31088;BME280;17745;55.914;37.554;2023-02-05T10:17:41;100080.56;;;2.28;49.77
31088;BME280;17745;55.914;37.554;2023-02-05T10:20:29;100083.66;;;1.85;50.22
31088;BME280;17745;55.914;37.554;2023-02-05T10:23:17;100087.72;;;1.88;50.01
31088;BME280;17745;55.914;37.554;2023-02-05T10:26:12;100093.09;;;2.10;49.88
31088;BME280;17745;55.914;37.554;2023-02-05T10:29:05;100085.66;;;2.22;49.69
31088;BME280;17745;55.914;37.554;2023-02-05T10:31:41;100079.06;;;2.34;49.88
31088;BME280;17745;55.914;37.554;2023-02-05T10:34:16;100082.22;;;2.45;49.76
31088;BME280;17745;55.914;37.554;2023-02-05T10:37:16;100077.31;;;2.65;49.51
31088;BME280;17745;55.914;37.554;2023-02-05T10:40:12;100083.63;;;2.70;49.35
31088;BME280;17745;55.914;37.554;2023-02-05T10:43:20;100079.31;;;3.08;49.17
31088;BME280;17745;55.914;37.554;2023-02-05T10:46:35;100087.34;;;3.06;48.77
31088;BME280;17745;55.914;37.554;2023-02-05T10:50:56;100086.91;;;3.18;48.22
31088;BME280;17745;55.914;37.554;2023-02-05T10:58:34;100096.34;;;3.04;48.57
31088;BME280;17745;55.914;37.554;2023-02-05T11:22:52;100088.63;;;2.19;50.79
31088;BME280;17745;55.914;37.554;2023-02-05T11:26:15;100092.47;;;1.84;51.87
31088;BME280;17745;55.914;37.554;2023-02-05T11:38:28;100095.72;;;2.10;51.65
31088;BME280;17745;55.914;37.554;2023-02-05T11:41:06;100095.94;;;1.77;52.22
31088;BME280;17745;55.914;37.554;2023-02-05T11:43:57;100104.19;;;2.12;51.85
31088;BME280;17745;55.914;37.554;2023-02-05T11:47:07;100105.78;;;2.60;51.21
31088;BME280;17745;55.914;37.554;2023-02-05T11:49:51;100105.78;;;2.60;51.21
31088;BME280;17745;55.914;37.554;2023-02-05T11:52:33;100105.25;;;2.26;51.89
31088;BME280;17745;55.914;37.554;2023-02-05T11:55:29;100108.72;;;2.41;51.73
31088;BME280;17745;55.914;37.554;2023-02-05T11:58:21;100105.50;;;2.54;51.69
31088;BME280;17745;55.914;37.554;2023-02-05T12:00:57;100101.22;;;2.77;51.31
31088;BME280;17745;55.914;37.554;2023-02-05T12:04:15;100107.81;;;2.88;51.16
31088;BME280;17745;55.914;37.554;2023-02-05T12:07:11;100099.69;;;2.97;51.09
31088;BME280;17745;55.914;37.554;2023-02-05T12:09:56;100105.47;;;2.93;51.13
31088;BME280;17745;55.914;37.554;2023-02-05T12:12:45;100103.41;;;3.03;51.02
31088;BME280;17745;55.914;37.554;2023-02-05T12:15:36;100098.25;;;3.25;50.59
31088;BME280;17745;55.914;37.554;2023-02-05T12:18:23;100107.47;;;3.21;50.51
31088;BME280;17745;55.914;37.554;2023-02-05T12:34:50;100119.34;;;2.78;51.29
31088;BME280;17745;55.914;37.554;2023-02-05T12:37:47;100116.28;;;2.75;51.41
31088;BME280;17745;55.914;37.554;2023-02-05T12:41:11;100122.66;;;2.34;52.11
31088;BME280;17745;55.914;37.554;2023-02-05T12:43:45;100116.34;;;2.05;52.50
31088;BME280;17745;55.914;37.554;2023-02-05T12:46:32;100109.19;;;1.98;52.74
31088;BME280;17745;55.914;37.554;2023-02-05T12:49:19;100115.34;;;2.06;52.71
31088;BME280;17745;55.914;37.554;2023-02-05T12:52:38;100111.50;;;1.93;52.98
31088;BME280;17745;55.914;37.554;2023-02-05T12:55:45;100109.50;;;1.72;53.37
31088;BME280;17745;55.914;37.554;2023-02-05T12:58:43;100108.50;;;2.05;52.79
31088;BME280;17745;55.914;37.554;2023-02-05T13:01:21;100112.63;;;2.22;52.60
31088;BME280;17745;55.914;37.554;2023-02-05T13:04:21;100111.78;;;2.22;52.66
31088;BME280;17745;55.914;37.554;2023-02-05T13:07:23;100105.91;;;2.28;52.68
31088;BME280;17745;55.914;37.554;2023-02-05T13:10:21;100104.78;;;1.99;53.29
31088;BME280;17745;55.914;37.554;2023-02-05T13:13:13;100100.06;;;2.18;52.82
31088;BME280;17745;55.914;37.554;2023-02-05T13:16:03;100104.50;;;2.17;52.93
31088;BME280;17745;55.914;37.554;2023-02-05T13:18:58;100115.13;;;2.16;53.09
31088;BME280;17745;55.914;37.554;2023-02-05T13:21:46;100115.81;;;2.09;53.29
31088;BME280;17745;55.914;37.554;2023-02-05T13:24:43;100119.53;;;2.15;53.12
31088;BME280;17745;55.914;37.554;2023-02-05T13:27:57;100109.84;;;2.00;53.61
31088;BME280;17745;55.914;37.554;2023-02-05T13:30:50;100119.94;;;2.04;53.72
31088;BME280;17745;55.914;37.554;2023-02-05T13:33:27;100122.94;;;1.61;54.76
31088;BME280;17745;55.914;37.554;2023-02-05T13:36:24;100107.91;;;0.66;57.50
31088;BME280;17745;55.914;37.554;2023-02-05T13:39:17;100123.91;;;1.20;56.25
31088;BME280;17745;55.914;37.554;2023-02-05T13:49:25;100139.59;;;1.03;56.88
31088;BME280;17745;55.914;37.554;2023-02-05T13:52:09;100132.88;;;1.65;55.33
31088;BME280;17745;55.914;37.554;2023-02-05T13:55:15;100138.38;;;1.70;55.19
31088;BME280;17745;55.914;37.554;2023-02-05T13:58:16;100137.94;;;1.67;55.32
31088;BME280;17745;55.914;37.554;2023-02-05T14:00:56;100134.59;;;1.81;55.10
31088;BME280;17745;55.914;37.554;2023-02-05T14:03:32;100135.53;;;1.57;55.73
31088;BME280;17745;55.914;37.554;2023-02-05T14:06:19;100134.34;;;1.68;55.42
31088;BME280;17745;55.914;37.554;2023-02-05T14:09:00;100132.44;;;1.53;55.90
31088;BME280;17745;55.914;37.554;2023-02-05T14:11:51;100135.13;;;1.68;55.54
31088;BME280;17745;55.914;37.554;2023-02-05T14:14:40;100138.50;;;1.54;56.13
31088;BME280;17745;55.914;37.554;2023-02-05T14:20:37;100136.41;;;1.73;55.74
31088;BME280;17745;55.914;37.554;2023-02-05T14:23:57;100139.00;;;0.93;57.38
31088;BME280;17745;55.914;37.554;2023-02-05T14:26:46;100140.91;;;1.55;56.12
31088;BME280;17745;55.914;37.554;2023-02-05T14:29:44;100139.44;;;1.61;55.85
31088;BME280;17745;55.914;37.554;2023-02-05T14:32:56;100151.97;;;1.09;56.98
31088;BME280;17745;55.914;37.554;2023-02-05T14:35:32;100152.91;;;1.25;56.86
31088;BME280;17745;55.914;37.554;2023-02-05T14:38:32;100153.34;;;0.39;58.69
31088;BME280;17745;55.914;37.554;2023-02-05T14:41:42;100158.87;;;0.61;58.58
31088;BME280;17745;55.914;37.554;2023-02-05T14:44:20;100163.06;;;1.20;57.13
31088;BME280;17745;55.914;37.554;2023-02-05T14:47:04;100160.94;;;1.15;57.09
31088;BME280;17745;55.914;37.554;2023-02-05T14:49:49;100164.44;;;1.47;56.37
31088;BME280;17745;55.914;37.554;2023-02-05T14:52:37;100172.06;;;0.26;58.96
31088;BME280;17745;55.914;37.554;2023-02-05T14:55:20;100176.37;;;-0.08;60.45
31088;BME280;17745;55.914;37.554;2023-02-05T14:58:35;100177.19;;;-0.07;60.44
31088;BME280;17745;55.914;37.554;2023-02-05T15:01:42;100183.13;;;0.94;57.35
31088;BME280;17745;55.914;37.554;2023-02-05T15:04:54;100189.66;;;0.98;57.13
31088;BME280;17745;55.914;37.554;2023-02-05T15:08:13;100184.62;;;0.64;57.87
31088;BME280;17745;55.914;37.554;2023-02-05T15:12:02;100182.81;;;0.56;57.83
31088;BME280;17745;55.914;37.554;2023-02-05T15:21:52;100179.56;;;0.70;57.06
31088;BME280;17745;55.914;37.554;2023-02-05T15:24:55;100184.13;;;0.93;56.68
31088;BME280;17745;55.914;37.554;2023-02-05T15:27:53;100181.50;;;1.02;56.58
31088;BME280;17745;55.914;37.554;2023-02-05T15:30:52;100176.94;;;0.95;56.51
31088;BME280;17745;55.914;37.554;2023-02-05T15:40:57;100186.72;;;0.77;56.63
31088;BME280;17745;55.914;37.554;2023-02-05T15:44:20;100182.19;;;0.62;56.85
31088;BME280;17745;55.914;37.554;2023-02-05T15:46:55;100194.72;;;0.67;56.62
31088;BME280;17745;55.914;37.554;2023-02-05T15:49:50;100193.25;;;0.64;56.74
31088;BME280;17745;55.914;37.554;2023-02-05T15:52:42;100203.34;;;0.59;56.79
31088;BME280;17745;55.914;37.554;2023-02-05T15:55:32;100204.16;;;0.51;56.97
31088;BME280;17745;55.914;37.554;2023-02-05T15:58:49;100200.09;;;0.57;56.85
31088;BME280;17745;55.914;37.554;2023-02-05T16:03:20;100211.66;;;0.54;56.89
31088;BME280;17745;55.914;37.554;2023-02-05T16:09:51;100212.12;;;0.41;57.19
31088;BME280;17745;55.914;37.554;2023-02-05T16:12:58;100207.56;;;0.44;57.12
31088;BME280;17745;55.914;37.554;2023-02-05T16:26:15;100206.59;;;0.61;57.03
31088;BME280;17745;55.914;37.554;2023-02-05T16:29:16;100204.66;;;0.71;56.96
31088;BME280;17745;55.914;37.554;2023-02-05T16:32:26;100212.78;;;0.52;57.46
31088;BME280;17745;55.914;37.554;2023-02-05T16:35:51;100208.88;;;0.56;57.42
31088;BME280;17745;55.914;37.554;2023-02-05T16:38:49;100215.50;;;0.25;58.43
31088;BME280;17745;55.914;37.554;2023-02-05T16:41:39;100198.91;;;0.26;58.26
31088;BME280;17745;55.914;37.554;2023-02-05T16:44:26;100220.22;;;0.22;58.72
31088;BME280;17745;55.914;37.554;2023-02-05T16:47:18;100214.06;;;0.39;58.22
31088;BME280;17745;55.914;37.554;2023-02-05T16:50:36;100219.03;;;-0.70;61.04
31088;BME280;17745;55.914;37.554;2023-02-05T16:53:11;100227.53;;;0.18;59.14
31088;BME280;17745;55.914;37.554;2023-02-05T16:55:53;100222.72;;;0.65;57.76
31088;BME280;17745;55.914;37.554;2023-02-05T16:58:55;100227.94;;;0.65;57.66
31088;BME280;17745;55.914;37.554;2023-02-05T17:01:59;100228.19;;;0.20;58.43
31088;BME280;17745;55.914;37.554;2023-02-05T17:04:54;100227.22;;;0.21;58.95
31088;BME280;17745;55.914;37.554;2023-02-05T17:07:35;100223.22;;;-0.08;59.75
31088;BME280;17745;55.914;37.554;2023-02-05T17:10:18;100233.41;;;0.28;58.60
31088;BME280;17745;55.914;37.554;2023-02-05T17:13:17;100227.66;;;-0.35;60.52
31088;BME280;17745;55.914;37.554;2023-02-05T17:16:26;100232.44;;;0.21;58.88
31088;BME280;17745;55.914;37.554;2023-02-05T17:19:23;100239.25;;;0.14;59.04
31088;BME280;17745;55.914;37.554;2023-02-05T17:22:16;100243.87;;;0.37;58.47
31088;BME280;17745;55.914;37.554;2023-02-05T17:25:11;100239.12;;;0.40;58.45
31088;BME280;17745;55.914;37.554;2023-02-05T17:27:55;100238.19;;;0.50;58.25
31088;BME280;17745;55.914;37.554;2023-02-05T17:30:29;100237.19;;;0.34;58.62
31088;BME280;17745;55.914;37.554;2023-02-05T17:33:16;100241.41;;;0.35;58.47
31088;BME280;17745;55.914;37.554;2023-02-05T17:35:52;100241.38;;;0.19;58.87
31088;BME280;17745;55.914;37.554;2023-02-05T17:38:29;100246.28;;;0.22;58.72
31088;BME280;17745;55.914;37.554;2023-02-05T17:40:59;100262.00;;;0.04;59.32
31088;BME280;17745;55.914;37.554;2023-02-05T17:43:54;100257.13;;;0.09;59.23
31088;BME280;17745;55.914;37.554;2023-02-05T17:46:46;100260.81;;;0.33;58.63
31088;BME280;17745;55.914;37.554;2023-02-05T17:50:24;100260.22;;;0.04;59.60
31088;BME280;17745;55.914;37.554;2023-02-05T17:53:03;100259.62;;;0.27;59.15
31088;BME280;17745;55.914;37.554;2023-02-05T17:55:49;100261.81;;;0.56;58.40
31088;BME280;17745;55.914;37.554;2023-02-05T17:59:13;100264.75;;;0.62;58.29
31088;BME280;17745;55.914;37.554;2023-02-05T18:02:18;100264.75;;;0.70;58.11
31088;BME280;17745;55.914;37.554;2023-02-05T19:08:30;100289.47;;;0.41;57.56
31088;BME280;17745;55.914;37.554;2023-02-05T19:11:35;100287.56;;;-0.26;59.12
31088;BME280;17745;55.914;37.554;2023-02-05T19:14:15;100288.44;;;-0.18;58.67
31088;BME280;17745;55.914;37.554;2023-02-05T19:17:00;100290.94;;;-0.61;59.54
31088;BME280;17745;55.914;37.554;2023-02-05T19:19:37;100298.63;;;-0.24;58.66
31088;BME280;17745;55.914;37.554;2023-02-05T19:22:16;100292.56;;;-0.33;58.52
31088;BME280;17745;55.914;37.554;2023-02-05T19:24:59;100300.63;;;-0.71;59.52
31088;BME280;17745;55.914;37.554;2023-02-05T19:27:36;100290.31;;;-0.28;58.61
31088;BME280;17745;55.914;37.554;2023-02-05T19:30:10;100298.63;;;0.10;57.65
31088;BME280;17745;55.914;37.554;2023-02-05T19:32:43;100308.28;;;0.18;57.52
31088;BME280;17745;55.914;37.554;2023-02-05T19:35:16;100303.84;;;0.10;57.71
31088;BME280;17745;55.914;37.554;2023-02-05T19:38:14;100304.09;;;-0.09;58.22
31088;BME280;17745;55.914;37.554;2023-02-05T19:44:17;100305.03;;;0.24;57.33
31088;BME280;17745;55.914;37.554;2023-02-05T19:47:21;100309.59;;;0.22;57.32
31088;BME280;17745;55.914;37.554;2023-02-05T19:49:58;100315.78;;;-0.40;58.58